sensor_id;sensor_type;location;lat;lon;timestamp;pressure;altitude;pressure_sealevel;temperature;humidity
69879;BME280;57161;43.136;24.706;2023-02-14T00:00:45;100785.44;;;1.10;74.40
69879;BME280;57161;43.136;24.706;2023-02-14T00:03:12;100793.63;;;1.01;75.33
69879;BME280;57161;43.136;24.706;2023-02-14T00:05:38;100779.06;;;0.88;75.16
69879;BME280;57161;43.136;24.706;2023-02-14T00:08:03;100786.56;;;0.87;75.33
69879;BME280;57161;43.136;24.706;2023-02-14T00:10:29;100769.13;;;0.78;75.08
69879;BME280;57161;43.136;24.706;2023-02-14T00:12:54;100790.41;;;0.90;75.46
69879;BME280;57161;43.136;24.706;2023-02-14T00:15:20;100741.97;;;0.67;75.21
69879;BME280;57161;43.136;24.706;2023-02-14T00:17:55;100771.44;;;0.79;75.54
69879;BME280;57161;43.136;24.706;2023-02-14T00:20:24;100767.41;;;0.84;75.17
69879;BME280;57161;43.136;24.706;2023-02-14T00:22:49;100771.47;;;0.92;74.73
69879;BME280;57161;43.136;24.706;2023-02-14T00:25:15;100782.38;;;1.08;74.25
69879;BME280;57161;43.136;24.706;2023-02-14T00:27:41;100758.94;;;1.04;74.05
69879;BME280;57161;43.136;24.706;2023-02-14T00:30:07;100775.44;;;1.16;73.57
69879;BME280;57161;43.136;24.706;2023-02-14T00:32:35;100774.44;;;1.10;73.61
69879;BME280;57161;43.136;24.706;2023-02-14T00:35:01;100765.09;;;1.08;73.54
69879;BME280;57161;43.136;24.706;2023-02-14T00:37:26;100770.38;;;1.15;73.67
69879;BME280;57161;43.136;24.706;2023-02-14T00:39:52;100775.44;;;1.04;73.75
69879;BME280;57161;43.136;24.706;2023-02-14T00:42:17;100769.06;;;1.07;73.69
69879;BME280;57161;43.136;24.706;2023-02-14T00:44:43;100754.97;;;1.05;73.47
69879;BME280;57161;43.136;24.706;2023-02-14T00:47:08;100742.75;;;1.06;73.56
69879;BME280;57161;43.136;24.706;2023-02-14T00:49:34;100745.03;;;1.07;73.20
69879;BME280;57161;43.136;24.706;2023-02-14T00:51:59;100738.31;;;1.08;73.40
69879;BME280;57161;43.136;24.706;2023-02-14T00:54:26;100745.16;;;1.16;73.55
69879;BME280;57161;43.136;24.706;2023-02-14T00:56:51;100741.31;;;1.14;73.19
69879;BME280;57161;43.136;24.706;2023-02-14T00:59:17;100731.53;;;1.00;73.28
69879;BME280;57161;43.136;24.706;2023-02-14T01:01:42;100747.34;;;1.22;73.29
69879;BME280;57161;43.136;24.706;2023-02-14T01:04:08;100735.56;;;1.08;72.97
69879;BME280;57161;43.136;24.706;2023-02-14T01:06:33;100748.44;;;1.11;73.26
69879;BME280;57161;43.136;24.706;2023-02-14T01:08:59;100731.53;;;1.00;73.71
69879;BME280;57161;43.136;24.706;2023-02-14T01:11:25;100748.13;;;1.09;73.09
69879;BME280;57161;43.136;24.706;2023-02-14T01:13:53;100742.63;;;1.09;73.21
69879;BME280;57161;43.136;24.706;2023-02-14T01:16:20;100742.75;;;1.06;73.34
69879;BME280;57161;43.136;24.706;2023-02-14T01:18:47;100728.66;;;1.04;73.66
69879;BME280;57161;43.136;24.706;2023-02-14T01:21:14;100728.84;;;1.09;73.38
69879;BME280;57161;43.136;24.706;2023-02-14T01:23:41;100722.25;;;1.07;73.50
69879;BME280;57161;43.136;24.706;2023-02-14T01:26:07;100724.88;;;1.10;73.50
69879;BME280;57161;43.136;24.706;2023-02-14T01:28:33;100712.47;;;1.06;73.59
69879;BME280;57161;43.136;24.706;2023-02-14T01:31:12;100719.94;;;1.18;73.24
69879;BME280;57161;43.136;24.706;2023-02-14T01:33:38;100708.69;;;1.25;72.66
69879;BME280;57161;43.136;24.706;2023-02-14T01:36:05;100700.22;;;1.19;72.95
69879;BME280;57161;43.136;24.706;2023-02-14T01:38:30;100699.22;;;1.13;72.87
69879;BME280;57161;43.136;24.706;2023-02-14T01:40:56;100700.41;;;1.25;72.74
69879;BME280;57161;43.136;24.706;2023-02-14T01:43:22;100682.81;;;1.23;72.77
69879;BME280;57161;43.136;24.706;2023-02-14T01:45:48;100692.66;;;1.45;71.70
69879;BME280;57161;43.136;24.706;2023-02-14T01:48:13;100695.66;;;1.73;71.37
69879;BME280;57161;43.136;24.706;2023-02-14T01:50:42;100665.41;;;2.04;68.89
69879;BME280;57161;43.136;24.706;2023-02-14T01:53:16;100683.00;;;2.50;68.07
69879;BME280;57161;43.136;24.706;2023-02-14T01:55:48;100669.75;;;2.76;67.11
69879;BME280;57161;43.136;24.706;2023-02-14T01:58:21;100674.44;;;3.07;66.17
69879;BME280;57161;43.136;24.706;2023-02-14T02:00:49;100665.59;;;3.30;65.33
69879;BME280;57161;43.136;24.706;2023-02-14T02:03:33;100676.69;;;3.48;64.64
69879;BME280;57161;43.136;24.706;2023-02-14T02:06:11;100675.59;;;3.46;64.53
69879;BME280;57161;43.136;24.706;2023-02-14T02:08:42;100659.78;;;3.46;64.36
69879;BME280;57161;43.136;24.706;2023-02-14T02:11:11;100657.47;;;3.54;63.91
69879;BME280;57161;43.136;24.706;2023-02-14T02:13:37;100678.06;;;3.71;63.98
69879;BME280;57161;43.136;24.706;2023-02-14T02:24:21;100661.00;;;3.82;63.04
69879;BME280;57161;43.136;24.706;2023-02-14T02:46:10;100634.59;;;3.81;62.35
69879;BME280;57161;43.136;24.706;2023-02-14T02:49:15;100630.00;;;3.78;62.36
69879;BME280;57161;43.136;24.706;2023-02-14T02:52:28;100645.78;;;3.86;62.27
69879;BME280;57161;43.136;24.706;2023-02-14T02:55:19;100625.38;;;3.84;62.39
69879;BME280;57161;43.136;24.706;2023-02-14T02:57:48;100640.44;;;3.83;62.72
69879;BME280;57161;43.136;24.706;2023-02-14T03:00:16;100642.59;;;3.79;62.85
69879;BME280;57161;43.136;24.706;2023-02-14T03:02:47;100622.16;;;3.67;63.00
69879;BME280;57161;43.136;24.706;2023-02-14T03:05:33;100623.22;;;3.70;62.96
69879;BME280;57161;43.136;24.706;2023-02-14T03:07:59;100620.16;;;3.77;62.87
69879;BME280;57161;43.136;24.706;2023-02-14T03:10:29;100619.88;;;3.75;63.04
69879;BME280;57161;43.136;24.706;2023-02-14T03:20:59;100618.34;;;3.28;64.41
69879;BME280;57161;43.136;24.706;2023-02-14T03:23:47;100628.13;;;3.20;64.68
69879;BME280;57161;43.136;24.706;2023-02-14T03:26:19;100628.25;;;3.07;65.07
69879;BME280;57161;43.136;24.706;2023-02-14T03:28:46;100628.41;;;2.94;65.44
69879;BME280;57161;43.136;24.706;2023-02-14T03:31:47;100628.34;;;2.76;66.17
69879;BME280;57161;43.136;24.706;2023-02-14T03:37:16;100613.91;;;2.63;67.12
69879;BME280;57161;43.136;24.706;2023-02-14T03:45:29;100613.91;;;2.63;66.88
69879;BME280;57161;43.136;24.706;2023-02-14T03:48:02;100597.91;;;2.49;67.15
69879;BME280;57161;43.136;24.706;2023-02-14T03:50:30;100597.88;;;2.39;67.26
69879;BME280;57161;43.136;24.706;2023-02-14T03:52:58;100606.47;;;2.41;67.54
69879;BME280;57161;43.136;24.706;2023-02-14T03:55:39;100608.44;;;2.41;67.79
69879;BME280;57161;43.136;24.706;2023-02-14T03:58:30;100603.38;;;2.39;68.08
69879;BME280;57161;43.136;24.706;2023-02-14T04:01:15;100600.63;;;2.39;68.14
69879;BME280;57161;43.136;24.706;2023-02-14T04:03:42;100598.78;;;2.36;68.19
69879;BME280;57161;43.136;24.706;2023-02-14T04:06:08;100596.94;;;2.33;68.24
69879;BME280;57161;43.136;24.706;2023-02-14T04:08:34;100600.06;;;2.54;68.00
69879;BME280;57161;43.136;24.706;2023-02-14T04:11:00;100577.69;;;2.52;67.55
69879;BME280;57161;43.136;24.706;2023-02-14T04:13:27;100570.34;;;2.58;67.18
69879;BME280;57161;43.136;24.706;2023-02-14T04:15:53;100567.16;;;2.68;67.01
69879;BME280;57161;43.136;24.706;2023-02-14T04:18:18;100568.06;;;2.75;66.77
69879;BME280;57161;43.136;24.706;2023-02-14T04:21:05;100566.53;;;2.74;66.80
69879;BME280;57161;43.136;24.706;2023-02-14T04:23:30;100569.63;;;2.85;66.38
69879;BME280;57161;43.136;24.706;2023-02-14T04:25:56;100533.56;;;2.70;65.99
69879;BME280;57161;43.136;24.706;2023-02-14T04:28:21;100565.50;;;2.89;66.15
69879;BME280;57161;43.136;24.706;2023-02-14T04:30:47;100559.66;;;2.87;65.88
69879;BME280;57161;43.136;24.706;2023-02-14T04:33:12;100548.63;;;2.87;65.48
69879;BME280;57161;43.136;24.706;2023-02-14T04:35:38;100562.00;;;2.98;65.61
69879;BME280;57161;43.136;24.706;2023-02-14T04:38:04;100561.38;;;3.03;65.37
69879;BME280;57161;43.136;24.706;2023-02-14T04:40:30;100566.44;;;3.05;65.32
69879;BME280;57161;43.136;24.706;2023-02-14T04:42:56;100564.75;;;3.07;65.24
69879;BME280;57161;43.136;24.706;2023-02-14T04:45:21;100563.97;;;3.07;64.96
69879;BME280;57161;43.136;24.706;2023-02-14T04:47:47;100576.91;;;3.10;65.12
69879;BME280;57161;43.136;24.706;2023-02-14T04:50:13;100549.25;;;3.00;64.92
69879;BME280;57161;43.136;24.706;2023-02-14T04:52:39;100554.03;;;3.09;64.78
69879;BME280;57161;43.136;24.706;2023-02-14T04:55:05;100549.88;;;3.05;65.18
69879;BME280;57161;43.136;24.706;2023-02-14T04:57:31;100529.47;;;2.93;65.46
69879;BME280;57161;43.136;24.706;2023-02-14T04:59:56;100555.41;;;3.05;65.09
69879;BME280;57161;43.136;24.706;2023-02-14T05:02:22;100556.16;;;3.05;65.00
69879;BME280;57161;43.136;24.706;2023-02-14T05:04:47;100553.56;;;3.01;64.89
69879;BME280;57161;43.136;24.706;2023-02-14T05:07:13;100480.81;;;2.59;64.82
69879;BME280;57161;43.136;24.706;2023-02-14T05:09:39;100553.88;;;2.94;64.99
69879;BME280;57161;43.136;24.706;2023-02-14T05:12:04;100556.00;;;2.99;65.25
69879;BME280;57161;43.136;24.706;2023-02-14T05:14:30;100511.19;;;2.68;65.02
69879;BME280;57161;43.136;24.706;2023-02-14T05:16:55;100547.13;;;2.95;65.48
69879;BME280;57161;43.136;24.706;2023-02-14T05:19:22;100570.44;;;3.04;65.00
69879;BME280;57161;43.136;24.706;2023-02-14T05:21:47;100568.91;;;3.03;65.42
69879;BME280;57161;43.136;24.706;2023-02-14T05:24:13;100556.28;;;2.92;65.52
69879;BME280;57161;43.136;24.706;2023-02-14T05:26:38;100570.28;;;2.98;65.57
69879;BME280;57161;43.136;24.706;2023-02-14T05:29:05;100568.13;;;3.02;65.76
69879;BME280;57161;43.136;24.706;2023-02-14T05:31:30;100557.09;;;3.02;65.28
69879;BME280;57161;43.136;24.706;2023-02-14T05:33:56;100537.13;;;2.89;65.53
69879;BME280;57161;43.136;24.706;2023-02-14T05:36:21;100558.78;;;2.99;65.19
69879;BME280;57161;43.136;24.706;2023-02-14T05:38:47;100554.75;;;2.91;65.88
69879;BME280;57161;43.136;24.706;2023-02-14T05:41:12;100566.44;;;2.95;65.56
69879;BME280;57161;43.136;24.706;2023-02-14T05:43:38;100581.47;;;3.04;65.51
69879;BME280;57161;43.136;24.706;2023-02-14T05:46:03;100578.72;;;3.04;65.39
69879;BME280;57161;43.136;24.706;2023-02-14T05:48:29;100549.69;;;2.90;65.25
69879;BME280;57161;43.136;24.706;2023-02-14T05:50:55;100575.34;;;3.09;65.23
69879;BME280;57161;43.136;24.706;2023-02-14T05:53:20;100538.66;;;2.90;65.45
69879;BME280;57161;43.136;24.706;2023-02-14T05:55:46;100593.28;;;3.22;65.30
69879;BME280;57161;43.136;24.706;2023-02-14T05:58:12;100564.00;;;3.16;65.69
69879;BME280;57161;43.136;24.706;2023-02-14T06:00:38;100570.44;;;3.22;65.37
69879;BME280;57161;43.136;24.706;2023-02-14T06:03:03;100545.28;;;3.01;65.39
69879;BME280;57161;43.136;24.706;2023-02-14T06:05:29;100572.28;;;3.34;65.37
69879;BME280;57161;43.136;24.706;2023-02-14T06:07:54;100568.63;;;3.28;65.16
69879;BME280;57161;43.136;24.706;2023-02-14T06:10:22;100583.19;;;3.47;65.27
69879;BME280;57161;43.136;24.706;2023-02-14T06:12:49;100560.00;;;3.35;64.86
69879;BME280;57161;43.136;24.706;2023-02-14T06:15:15;100597.16;;;3.61;65.18
69879;BME280;57161;43.136;24.706;2023-02-14T06:17:40;100576.09;;;3.55;65.23
69879;BME280;57161;43.136;24.706;2023-02-14T06:20:07;100580.41;;;3.65;65.11
69879;BME280;57161;43.136;24.706;2023-02-14T06:22:35;100566.28;;;3.63;64.98
69879;BME280;57161;43.136;24.706;2023-02-14T06:25:01;100567.03;;;3.64;64.83
69879;BME280;57161;43.136;24.706;2023-02-14T06:27:28;100577.47;;;3.78;63.92
69879;BME280;57161;43.136;24.706;2023-02-14T06:29:55;100551.81;;;3.68;63.89
69879;BME280;57161;43.136;24.706;2023-02-14T06:32:21;100571.16;;;3.77;63.82
69879;BME280;57161;43.136;24.706;2023-02-14T06:34:46;100585.72;;;3.96;63.98
69879;BME280;57161;43.136;24.706;2023-02-14T06:37:12;100587.97;;;4.16;62.72
69879;BME280;57161;43.136;24.706;2023-02-14T06:39:38;100555.13;;;4.00;62.83
69879;BME280;57161;43.136;24.706;2023-02-14T06:42:03;100589.31;;;4.20;62.60
69879;BME280;57161;43.136;24.706;2023-02-14T06:44:29;100592.34;;;4.32;61.77
69879;BME280;57161;43.136;24.706;2023-02-14T06:46:54;100604.31;;;4.38;62.37
69879;BME280;57161;43.136;24.706;2023-02-14T06:49:19;100606.78;;;4.36;62.28
69879;BME280;57161;43.136;24.706;2023-02-14T06:51:45;100605.53;;;4.37;62.26
69879;BME280;57161;43.136;24.706;2023-02-14T06:54:10;100590.81;;;4.31;62.03
69879;BME280;57161;43.136;24.706;2023-02-14T06:56:36;100591.25;;;4.38;61.89
69879;BME280;57161;43.136;24.706;2023-02-14T06:59:01;100602.84;;;4.61;61.44
69879;BME280;57161;43.136;24.706;2023-02-14T07:01:27;100559.97;;;4.23;61.55
69879;BME280;57161;43.136;24.706;2023-02-14T07:03:52;100613.38;;;4.71;61.03
69879;BME280;57161;43.136;24.706;2023-02-14T07:06:18;100616.16;;;4.71;61.29
69879;BME280;57161;43.136;24.706;2023-02-14T07:08:44;100600.38;;;4.63;61.14
69879;BME280;57161;43.136;24.706;2023-02-14T07:11:09;100587.34;;;4.54;60.92
69879;BME280;57161;43.136;24.706;2023-02-14T07:13:35;100635.72;;;4.68;61.16
69879;BME280;57161;43.136;24.706;2023-02-14T07:16:00;100628.47;;;4.70;61.04
69879;BME280;57161;43.136;24.706;2023-02-14T07:18:26;100628.34;;;4.65;61.13
69879;BME280;57161;43.136;24.706;2023-02-14T07:20:51;100603.88;;;4.39;61.76
69879;BME280;57161;43.136;24.706;2023-02-14T07:23:17;100634.47;;;4.69;61.19
69879;BME280;57161;43.136;24.706;2023-02-14T07:25:43;100568.97;;;4.42;61.11
69879;BME280;57161;43.136;24.706;2023-02-14T07:28:08;100643.91;;;4.62;61.36
69879;BME280;57161;43.136;24.706;2023-02-14T07:30:34;100624.25;;;4.51;61.45
69879;BME280;57161;43.136;24.706;2023-02-14T07:32:59;100622.13;;;4.46;62.03
69879;BME280;57161;43.136;24.706;2023-02-14T07:35:25;100628.72;;;4.48;62.16
69879;BME280;57161;43.136;24.706;2023-02-14T07:37:50;100647.56;;;4.68;61.89
69879;BME280;57161;43.136;24.706;2023-02-14T07:40:16;100639.09;;;4.72;61.65
69879;BME280;57161;43.136;24.706;2023-02-14T07:42:42;100646.47;;;4.75;61.66
69879;BME280;57161;43.136;24.706;2023-02-14T07:45:08;100632.63;;;4.75;61.58
69879;BME280;57161;43.136;24.706;2023-02-14T07:47:34;100651.75;;;4.88;61.33
69879;BME280;57161;43.136;24.706;2023-02-14T07:49:59;100657.84;;;5.01;60.72
69879;BME280;57161;43.136;24.706;2023-02-14T07:52:25;100639.47;;;4.89;60.80
69879;BME280;57161;43.136;24.706;2023-02-14T07:54:50;100649.91;;;4.94;60.89
69879;BME280;57161;43.136;24.706;2023-02-14T07:57:16;100628.03;;;4.72;61.00
69879;BME280;57161;43.136;24.706;2023-02-14T07:59:41;100649.84;;;5.03;61.19
69879;BME280;57161;43.136;24.706;2023-02-14T08:02:09;100634.34;;;4.96;60.98
69879;BME280;57161;43.136;24.706;2023-02-14T08:04:38;100637.53;;;5.04;60.89
69879;BME280;57161;43.136;24.706;2023-02-14T08:07:04;100652.97;;;5.20;60.48
69879;BME280;57161;43.136;24.706;2023-02-14T08:09:29;100650.97;;;5.20;60.51
69879;BME280;57161;43.136;24.706;2023-02-14T08:11:57;100649.44;;;5.19;60.27
69879;BME280;57161;43.136;24.706;2023-02-14T08:14:41;100653.69;;;5.29;60.45
69879;BME280;57161;43.136;24.706;2023-02-14T08:17:07;100642.50;;;5.24;60.08
69879;BME280;57161;43.136;24.706;2023-02-14T08:19:35;100646.66;;;5.43;59.79
69879;BME280;57161;43.136;24.706;2023-02-14T08:22:01;100646.56;;;5.52;59.94
69879;BME280;57161;43.136;24.706;2023-02-14T08:24:26;100649.06;;;5.50;59.96
69879;BME280;57161;43.136;24.706;2023-02-14T08:26:52;100648.38;;;5.40;60.12
69879;BME280;57161;43.136;24.706;2023-02-14T08:29:18;100667.34;;;5.57;59.99
69879;BME280;57161;43.136;24.706;2023-02-14T08:31:43;100643.78;;;5.37;60.02
69879;BME280;57161;43.136;24.706;2023-02-14T08:34:09;100600.28;;;5.05;60.32
69879;BME280;57161;43.136;24.706;2023-02-14T08:36:35;100644.66;;;5.43;60.31
69879;BME280;57161;43.136;24.706;2023-02-14T08:39:02;100661.28;;;5.43;60.42
69879;BME280;57161;43.136;24.706;2023-02-14T08:41:28;100638.16;;;5.47;60.11
69879;BME280;57161;43.136;24.706;2023-02-14T08:43:53;100642.47;;;5.48;60.38
69879;BME280;57161;43.136;24.706;2023-02-14T08:46:19;100647.66;;;5.55;60.28
69879;BME280;57161;43.136;24.706;2023-02-14T08:48:44;100647.00;;;5.36;60.51
69879;BME280;57161;43.136;24.706;2023-02-14T08:51:12;100663.28;;;5.43;60.55
69879;BME280;57161;43.136;24.706;2023-02-14T08:53:39;100662.25;;;5.40;61.06
69879;BME280;57161;43.136;24.706;2023-02-14T08:56:07;100663.41;;;5.49;60.77
69879;BME280;57161;43.136;24.706;2023-02-14T08:58:33;100662.75;;;5.54;60.74
69879;BME280;57161;43.136;24.706;2023-02-14T09:01:14;100655.81;;;5.73;60.39
69879;BME280;57161;43.136;24.706;2023-02-14T09:03:41;100574.22;;;5.11;60.19
69879;BME280;57161;43.136;24.706;2023-02-14T09:06:09;100650.91;;;5.53;61.15
69879;BME280;57161;43.136;24.706;2023-02-14T09:08:36;100638.38;;;5.58;61.24
69879;BME280;57161;43.136;24.706;2023-02-14T09:11:13;100632.88;;;5.87;60.68
69879;BME280;57161;43.136;24.706;2023-02-14T09:13:42;100649.38;;;6.06;59.70
69879;BME280;57161;43.136;24.706;2023-02-14T09:16:09;100646.13;;;6.07;59.93
69879;BME280;57161;43.136;24.706;2023-02-14T09:18:35;100627.34;;;5.87;59.83
69879;BME280;57161;43.136;24.706;2023-02-14T09:21:02;100631.00;;;5.93;59.80
69879;BME280;57161;43.136;24.706;2023-02-14T09:23:31;100621.03;;;5.87;60.34
69879;BME280;57161;43.136;24.706;2023-02-14T09:26:04;100635.44;;;5.76;60.73
69879;BME280;57161;43.136;24.706;2023-02-14T09:28:30;100621.50;;;5.70;61.11
69879;BME280;57161;43.136;24.706;2023-02-14T09:30:57;100624.94;;;5.80;61.31
69879;BME280;57161;43.136;24.706;2023-02-14T09:33:24;100606.94;;;5.76;60.97
69879;BME280;57161;43.136;24.706;2023-02-14T09:35:51;100612.81;;;5.92;60.38
69879;BME280;57161;43.136;24.706;2023-02-14T09:38:34;100564.38;;;5.64;60.24
69879;BME280;57161;43.136;24.706;2023-02-14T09:41:05;100593.13;;;5.90;60.28
69879;BME280;57161;43.136;24.706;2023-02-14T09:46:07;100608.53;;;6.06;60.36
69879;BME280;57161;43.136;24.706;2023-02-14T09:48:40;100600.75;;;6.10;60.13
69879;BME280;57161;43.136;24.706;2023-02-14T09:51:13;100613.88;;;6.24;59.99
69879;BME280;57161;43.136;24.706;2023-02-14T09:53:50;100616.44;;;6.13;60.02
69879;BME280;57161;43.136;24.706;2023-02-14T09:56:31;100570.31;;;5.71;60.69
69879;BME280;57161;43.136;24.706;2023-02-14T09:59:08;100610.34;;;5.94;61.41
69879;BME280;57161;43.136;24.706;2023-02-14T10:01:43;100615.81;;;6.18;60.48
69879;BME280;57161;43.136;24.706;2023-02-14T10:12:34;100572.34;;;6.00;60.74
69879;BME280;57161;43.136;24.706;2023-02-14T10:15:27;100595.78;;;6.29;60.72
69879;BME280;57161;43.136;24.706;2023-02-14T10:20:40;100577.78;;;6.24;60.96
69879;BME280;57161;43.136;24.706;2023-02-14T10:25:58;100584.94;;;6.31;61.62
69879;BME280;57161;43.136;24.706;2023-02-14T10:28:47;100582.28;;;6.22;62.00
69879;BME280;57161;43.136;24.706;2023-02-14T10:31:22;100550.47;;;6.03;62.29
69879;BME280;57161;43.136;24.706;2023-02-14T10:33:53;100578.84;;;6.27;61.98
69879;BME280;57161;43.136;24.706;2023-02-14T10:36:27;100570.38;;;6.51;61.44
69879;BME280;57161;43.136;24.706;2023-02-14T10:39:07;100559.06;;;6.54;61.30
69879;BME280;57161;43.136;24.706;2023-02-14T10:42:25;100561.09;;;6.39;61.70
69879;BME280;57161;43.136;24.706;2023-02-14T10:47:49;100580.44;;;6.33;61.50
69879;BME280;57161;43.136;24.706;2023-02-14T10:50:24;100568.03;;;6.14;61.60
69879;BME280;57161;43.136;24.706;2023-02-14T10:55:48;100575.09;;;6.30;61.42
69879;BME280;57161;43.136;24.706;2023-02-14T10:58:18;100571.69;;;6.20;61.70
69879;BME280;57161;43.136;24.706;2023-02-14T11:00:59;100587.34;;;6.38;62.02
69879;BME280;57161;43.136;24.706;2023-02-14T11:03:27;100575.00;;;6.39;61.32
69879;BME280;57161;43.136;24.706;2023-02-14T11:05:53;100552.53;;;6.08;61.84
69879;BME280;57161;43.136;24.706;2023-02-14T11:08:24;100523.19;;;5.86;61.59
69879;BME280;57161;43.136;24.706;2023-02-14T11:10:51;100544.31;;;5.98;61.95
69879;BME280;57161;43.136;24.706;2023-02-14T11:15:52;100559.91;;;6.11;61.95
69879;BME280;57161;43.136;24.706;2023-02-14T11:18:24;100572.66;;;6.03;62.42
69879;BME280;57161;43.136;24.706;2023-02-14T11:23:31;100560.47;;;6.00;62.21
69879;BME280;57161;43.136;24.706;2023-02-14T11:25:58;100549.22;;;6.04;62.20
69879;BME280;57161;43.136;24.706;2023-02-14T11:28:25;100546.22;;;6.22;61.83
69879;BME280;57161;43.136;24.706;2023-02-14T11:30:51;100536.19;;;6.10;61.43
69879;BME280;57161;43.136;24.706;2023-02-14T11:35:54;100535.13;;;6.07;61.67
69879;BME280;57161;43.136;24.706;2023-02-14T11:38:29;100553.19;;;6.17;61.85
69879;BME280;57161;43.136;24.706;2023-02-14T11:40:56;100542.84;;;6.18;61.70
69879;BME280;57161;43.136;24.706;2023-02-14T11:43:43;100522.88;;;6.14;61.73
69879;BME280;57161;43.136;24.706;2023-02-14T11:49:03;100527.53;;;6.22;61.39
69879;BME280;57161;43.136;24.706;2023-02-14T11:51:43;100525.88;;;6.30;61.07
69879;BME280;57161;43.136;24.706;2023-02-14T11:54:25;100527.53;;;6.22;61.31
69879;BME280;57161;43.136;24.706;2023-02-14T11:56:55;100525.75;;;6.19;61.66
69879;BME280;57161;43.136;24.706;2023-02-14T11:59:31;100519.72;;;6.21;61.40
69879;BME280;57161;43.136;24.706;2023-02-14T12:02:03;100508.50;;;6.15;61.43
69879;BME280;57161;43.136;24.706;2023-02-14T12:04:40;100488.72;;;6.08;61.65
69879;BME280;57161;43.136;24.706;2023-02-14T12:07:21;100497.44;;;6.00;61.48
69879;BME280;57161;43.136;24.706;2023-02-14T12:23:09;100484.63;;;6.38;60.44
69879;BME280;57161;43.136;24.706;2023-02-14T12:25:47;100480.88;;;6.41;60.30
69879;BME280;57161;43.136;24.706;2023-02-14T12:28:18;100472.66;;;6.32;60.15
69879;BME280;57161;43.136;24.706;2023-02-14T12:30:48;100478.78;;;6.36;60.54
69879;BME280;57161;43.136;24.706;2023-02-14T12:33:19;100478.44;;;6.49;60.38
69879;BME280;57161;43.136;24.706;2023-02-14T12:36:03;100468.94;;;6.55;60.10
69879;BME280;57161;43.136;24.706;2023-02-14T12:44:12;100433.63;;;6.36;59.25
69879;BME280;57161;43.136;24.706;2023-02-14T13:11:50;100459.72;;;6.84;58.49
69879;BME280;57161;43.136;24.706;2023-02-14T13:14:29;100454.22;;;6.70;58.94
69879;BME280;57161;43.136;24.706;2023-02-14T13:17:01;100461.72;;;6.63;59.08
69879;BME280;57161;43.136;24.706;2023-02-14T13:22:16;100449.34;;;6.65;59.22
69879;BME280;57161;43.136;24.706;2023-02-14T13:24:48;100444.47;;;6.80;59.03
69879;BME280;57161;43.136;24.706;2023-02-14T13:27:24;100451.25;;;6.73;58.81
69879;BME280;57161;43.136;24.706;2023-02-14T13:30:02;100444.47;;;6.80;58.38
69879;BME280;57161;43.136;24.706;2023-02-14T13:32:38;100437.69;;;6.81;58.82
69879;BME280;57161;43.136;24.706;2023-02-14T13:35:06;100440.53;;;6.66;59.03
69879;BME280;57161;43.136;24.706;2023-02-14T13:37:32;100421.78;;;6.61;59.49
69879;BME280;57161;43.136;24.706;2023-02-14T13:40:05;100447.34;;;6.85;58.47
69879;BME280;57161;43.136;24.706;2023-02-14T13:53:43;100409.53;;;7.19;57.40
69879;BME280;57161;43.136;24.706;2023-02-14T14:01:37;100348.84;;;6.60;58.14
69879;BME280;57161;43.136;24.706;2023-02-14T14:17:35;100390.69;;;7.03;57.04
69879;BME280;57161;43.136;24.706;2023-02-14T14:20:28;100403.09;;;7.08;57.24
69879;BME280;57161;43.136;24.706;2023-02-14T14:25:29;100405.38;;;7.09;57.73
69879;BME280;57161;43.136;24.706;2023-02-14T14:27:55;100402.06;;;7.05;57.52
69879;BME280;57161;43.136;24.706;2023-02-14T14:30:25;100405.06;;;7.02;57.84
69879;BME280;57161;43.136;24.706;2023-02-14T14:32:53;100400.44;;;6.93;57.78
69879;BME280;57161;43.136;24.706;2023-02-14T14:35:23;100353.91;;;6.62;57.62
69879;BME280;57161;43.136;24.706;2023-02-14T14:40:27;100390.31;;;6.90;57.72
69879;BME280;57161;43.136;24.706;2023-02-14T14:42:58;100394.34;;;6.89;58.25
69879;BME280;57161;43.136;24.706;2023-02-14T14:45:27;100392.72;;;6.82;57.87
69879;BME280;57161;43.136;24.706;2023-02-14T14:47:57;100404.78;;;6.74;58.65
69879;BME280;57161;43.136;24.706;2023-02-14T14:50:25;100378.13;;;6.61;58.16
69879;BME280;57161;43.136;24.706;2023-02-14T14:52:54;100403.78;;;6.77;58.52
69879;BME280;57161;43.136;24.706;2023-02-14T14:55:25;100405.53;;;6.74;58.40
69879;BME280;57161;43.136;24.706;2023-02-14T14:57:57;100406.75;;;6.68;58.49
69879;BME280;57161;43.136;24.706;2023-02-14T15:05:36;100412.44;;;6.58;58.69
69879;BME280;57161;43.136;24.706;2023-02-14T15:10:41;100361.63;;;6.32;58.95
69879;BME280;57161;43.136;24.706;2023-02-14T15:13:11;100406.34;;;6.54;58.96
69879;BME280;57161;43.136;24.706;2023-02-14T15:16:10;100396.19;;;6.31;59.23
69879;BME280;57161;43.136;24.706;2023-02-14T15:18:35;100403.34;;;6.38;59.64
69879;BME280;57161;43.136;24.706;2023-02-14T15:21:02;100397.81;;;6.38;59.33
69879;BME280;57161;43.136;24.706;2023-02-14T15:23:29;100391.88;;;6.30;59.27
69879;BME280;57161;43.136;24.706;2023-02-14T15:25:55;100396.19;;;6.31;59.41
69879;BME280;57161;43.136;24.706;2023-02-14T15:28:32;100376.00;;;6.10;59.72
69879;BME280;57161;43.136;24.706;2023-02-14T15:31:01;100399.94;;;6.28;59.52
69879;BME280;57161;43.136;24.706;2023-02-14T15:33:28;100380.22;;;6.06;59.80
69879;BME280;57161;43.136;24.706;2023-02-14T15:35:55;100389.31;;;6.06;59.72
69879;BME280;57161;43.136;24.706;2023-02-14T15:38:22;100383.13;;;5.96;59.87
69879;BME280;57161;43.136;24.706;2023-02-14T15:40:48;100393.25;;;5.99;59.98
69879;BME280;57161;43.136;24.706;2023-02-14T15:45:44;100397.75;;;5.97;60.02
69879;BME280;57161;43.136;24.706;2023-02-14T15:48:15;100364.44;;;5.62;60.39
69879;BME280;57161;43.136;24.706;2023-02-14T15:50:53;100403.25;;;5.91;60.55